createdAt,value
2023-05-25T00:05:10.970Z,66.20
2023-05-25T00:07:40.972Z,66.20
2023-05-25T00:10:10.693Z,66.10
2023-05-25T00:12:41.447Z,65.80
2023-05-25T00:15:11.112Z,65.50
2023-05-25T00:17:41.204Z,64.90
2023-05-25T00:20:10.975Z,64.60
2023-05-25T00:22:40.758Z,64.60
2023-05-25T00:25:10.359Z,63.60
2023-05-25T00:27:39.837Z,63.10
2023-05-25T00:30:09.659Z,63.20
2023-05-25T00:32:39.225Z,62.80
2023-05-25T00:35:09.411Z,62.00
2023-05-25T00:37:39.257Z,62.20
2023-05-25T00:40:13.060Z,62.30
2023-05-25T00:42:42.749Z,62.20
2023-05-25T00:45:12.484Z,61.20
2023-05-25T00:47:43.042Z,61.60
2023-05-25T00:50:15.028Z,61.20
2023-05-25T00:52:45.830Z,61.30
2023-05-25T00:55:18.797Z,60.20
2023-05-25T00:57:52.532Z,60.20
2023-05-25T01:00:22.873Z,60.20
2023-05-25T01:02:54.567Z,60.00
2023-05-25T01:05:26.853Z,59.10
2023-05-25T01:07:56.982Z,58.50
2023-05-25T01:10:27.615Z,58.70
2023-05-25T01:12:58.362Z,58.30
2023-05-25T01:15:29.952Z,57.90
2023-05-25T01:18:01.451Z,58.10
2023-05-25T01:20:32.170Z,57.70
2023-05-25T01:23:14.363Z,57.60
2023-05-25T01:25:47.925Z,56.80
2023-05-25T01:28:24.984Z,57.80
2023-05-25T01:30:57.109Z,57.00
2023-05-25T01:33:27.929Z,57.30
2023-05-25T01:35:57.526Z,57.20
2023-05-25T01:38:27.106Z,56.10
2023-05-25T01:40:56.706Z,55.90
2023-05-25T01:43:26.141Z,55.50
2023-05-25T02:26:03.917Z,52.70
2023-05-25T02:28:34.547Z,51.10
2023-05-25T02:31:04.081Z,50.60
2023-05-25T02:33:33.559Z,48.60
2023-05-25T02:36:03.007Z,44.90
2023-05-25T02:38:32.451Z,44.60
2023-05-25T02:41:02.725Z,44.50
2023-05-25T02:43:32.331Z,44.70
2023-05-25T02:46:01.790Z,45.10
2023-05-25T02:48:31.217Z,44.80
2023-05-25T02:51:00.787Z,44.50
2023-05-25T02:53:30.304Z,44.40
2023-05-25T02:56:00.165Z,43.20
2023-05-25T02:58:30.075Z,42.90
2023-05-25T03:01:01.982Z,42.40
2023-05-25T03:03:31.445Z,42.70
2023-05-25T03:06:00.981Z,42.70
2023-05-25T03:08:30.410Z,42.60
2023-05-25T03:10:59.826Z,43.20
2023-05-25T03:13:29.225Z,42.20
2023-05-25T03:15:59.055Z,43.00
2023-05-25T03:18:31.018Z,43.30
2023-05-25T03:21:00.457Z,42.40
2023-05-25T03:23:29.852Z,42.50
2023-05-25T04:41:39.536Z,43.40
2023-05-25T04:44:10.457Z,44.10
2023-05-25T04:46:41.059Z,43.50
2023-05-25T04:49:11.506Z,44.00
2023-05-25T04:51:41.323Z,43.60
2023-05-25T04:54:10.778Z,43.30
2023-05-25T04:56:40.218Z,43.30
2023-05-25T04:59:09.680Z,43.10
2023-05-25T05:01:42.923Z,43.50
2023-05-25T05:04:12.871Z,43.40
2023-05-25T05:06:42.377Z,42.60
2023-05-25T05:09:11.887Z,43.00
2023-05-25T05:11:41.614Z,43.40
2023-05-25T05:14:11.083Z,43.40
2023-05-25T05:16:40.953Z,44.00
2023-05-25T05:19:10.505Z,43.90
2023-05-25T05:21:40.525Z,43.50
2023-05-25T05:24:09.951Z,43.40
2023-05-25T05:26:55.617Z,43.30
2023-05-25T05:29:28.503Z,43.80
2023-05-25T05:31:58.106Z,44.40
2023-05-25T05:34:27.606Z,44.30
2023-05-25T05:36:58.894Z,44.50
2023-05-25T05:39:29.474Z,45.10
2023-05-25T05:48:25.707Z,44.80
2023-05-25T05:50:55.353Z,45.60
2023-05-25T05:53:24.965Z,46.10
2023-05-25T05:55:59.591Z,46.30
2023-05-25T05:58:28.990Z,47.10
2023-05-25T06:00:59.377Z,47.00
2023-05-25T06:03:32.535Z,47.80
2023-05-25T06:06:02.850Z,48.00
2023-05-25T06:08:32.832Z,48.10
2023-05-25T06:11:02.345Z,48.50
2023-05-25T06:13:31.736Z,49.00
2023-05-25T06:16:05.062Z,49.20
2023-05-25T06:18:34.524Z,49.70
2023-05-25T06:21:04.119Z,49.90
2023-05-25T06:23:34.910Z,50.00
2023-05-25T06:26:07.677Z,50.40
2023-05-25T06:28:37.835Z,50.60
2023-05-25T06:31:08.204Z,50.70
2023-05-25T06:33:38.127Z,51.00
2023-05-25T06:36:08.803Z,51.40
2023-05-25T06:38:38.324Z,52.00
2023-05-25T06:41:09.051Z,51.90
2023-05-25T06:43:47.309Z,52.00
2023-05-25T08:05:39.546Z,51.60
2023-05-25T08:08:08.953Z,51.80
2023-05-25T08:10:39.407Z,51.10
2023-05-25T08:13:09.865Z,50.50
2023-05-25T08:15:39.313Z,51.00
2023-05-25T08:18:10.094Z,51.10
2023-05-25T08:20:40.861Z,50.60
2023-05-25T08:23:10.432Z,51.30
2023-05-25T08:25:39.872Z,51.00
2023-05-25T08:28:10.110Z,51.10
2023-05-25T08:30:41.569Z,51.50
2023-05-25T08:33:11.286Z,51.50
2023-05-25T08:35:44.814Z,51.70
2023-05-25T08:38:14.801Z,51.50
2023-05-25T08:40:45.002Z,51.90
2023-05-25T08:43:14.508Z,52.10
2023-05-25T08:45:47.223Z,52.70
2023-05-25T08:48:35.647Z,52.70
2023-05-25T08:51:15.897Z,52.70
2023-05-25T08:53:46.894Z,52.40
2023-05-25T08:56:21.606Z,53.00
2023-05-25T08:59:06.575Z,53.20
2023-05-25T09:01:40.915Z,53.60
2023-05-25T09:04:10.645Z,54.00
2023-05-25T09:06:40.253Z,54.10
2023-05-25T09:09:11.233Z,54.30
2023-05-25T09:11:44.182Z,54.40
2023-05-25T09:14:15.223Z,54.70
2023-05-25T09:16:44.730Z,55.20
2023-05-25T09:19:16.851Z,55.30
2023-05-25T09:21:46.523Z,55.60
2023-05-25T09:24:16.216Z,55.40
2023-05-25T09:26:48.268Z,55.10
2023-05-25T09:29:20.751Z,55.10
2023-05-25T09:31:50.594Z,55.30
2023-05-25T09:34:20.174Z,55.80
2023-05-25T09:36:49.862Z,56.10
2023-05-25T09:39:19.483Z,56.10
2023-05-25T09:41:49.357Z,56.40
2023-05-25T09:44:18.919Z,56.20
2023-05-25T09:46:49.438Z,53.70
2023-05-25T09:49:19.599Z,53.30
2023-05-25T09:54:15.508Z,54.20
2023-05-25T09:56:45.148Z,54.70
2023-05-25T09:59:14.686Z,54.90
2023-05-25T10:01:46.330Z,55.40
2023-05-25T10:04:18.266Z,55.10
2023-05-25T10:06:52.520Z,55.40
2023-05-25T10:09:22.399Z,55.60
2023-05-25T10:11:53.676Z,55.50
2023-05-25T10:14:29.143Z,53.90
2023-05-25T10:17:02.126Z,53.20
2023-05-25T10:19:39.071Z,53.10
2023-05-25T10:22:17.768Z,51.40
2023-05-25T10:24:58.171Z,51.50
2023-05-25T10:27:31.737Z,51.10
2023-05-25T10:30:02.237Z,50.70
2023-05-25T10:32:31.957Z,50.00
2023-05-25T10:35:02.808Z,50.10
2023-05-25T10:37:34.621Z,49.80
2023-05-25T10:40:05.379Z,49.60
2023-05-25T10:42:39.606Z,48.70
2023-05-25T10:45:10.386Z,48.10
2023-05-25T10:47:44.502Z,47.70
2023-05-25T10:50:30.241Z,47.80
2023-05-25T10:53:01.631Z,47.70
2023-05-25T16:08:26.559Z,58.20
2023-05-25T16:10:55.991Z,58.20
2023-05-25T16:13:25.830Z,58.00
2023-05-25T16:15:55.532Z,58.00
2023-05-25T16:18:25.021Z,58.20
2023-05-25T16:20:58.145Z,58.00
2023-05-25T16:23:27.795Z,58.20
2023-05-25T16:25:57.296Z,58.30
2023-05-25T16:28:27.328Z,58.50
2023-05-25T16:30:56.799Z,58.50
2023-05-25T16:33:26.206Z,59.00
2023-05-25T16:35:56.033Z,59.30
2023-05-25T16:38:25.491Z,59.40
2023-05-25T16:40:54.915Z,59.20
2023-05-25T16:43:26.653Z,59.40
2023-05-25T16:45:56.155Z,59.30
2023-05-25T16:48:26.020Z,59.30
2023-05-25T16:50:55.474Z,59.00
2023-05-25T16:53:24.965Z,59.10
2023-05-25T16:55:54.386Z,59.20
2023-05-25T16:58:26.108Z,59.10
2023-05-25T17:00:55.550Z,59.60
2023-05-25T17:03:25.017Z,59.70
2023-05-25T17:05:54.980Z,59.60
2023-05-25T20:08:45.090Z,79.90
2023-05-25T20:11:14.899Z,79.30
2023-05-25T20:13:45.048Z,78.90
2023-05-25T20:16:14.609Z,78.90
2023-05-25T20:18:45.150Z,79.00
2023-05-25T20:21:14.759Z,79.20
2023-05-25T20:23:44.125Z,79.60
2023-05-25T20:26:13.989Z,79.10
2023-05-25T20:28:43.817Z,79.30
2023-05-25T20:31:13.259Z,79.40
2023-05-25T20:33:43.225Z,80.20
2023-05-25T20:36:13.236Z,80.00
2023-05-25T20:38:46.658Z,80.30
2023-05-25T20:41:16.643Z,80.30
2023-05-25T20:43:46.640Z,81.00
2023-05-25T20:46:16.163Z,80.90
2023-05-25T20:48:45.617Z,80.80
2023-05-25T20:51:15.886Z,80.70
2023-05-25T20:53:45.284Z,81.10
2023-05-25T20:56:14.788Z,81.40
2023-05-25T20:58:44.244Z,81.40
2023-05-25T21:01:13.700Z,81.10
2023-05-25T21:03:43.263Z,80.90
2023-05-25T21:06:12.833Z,80.60
2023-05-25T21:08:42.226Z,80.50
2023-05-25T21:11:11.674Z,80.70
2023-05-25T21:13:41.470Z,80.60
2023-05-25T21:16:11.062Z,80.00
2023-05-25T21:18:41.067Z,80.20
2023-05-25T21:21:13.182Z,80.20
2023-05-25T21:23:43.171Z,80.20
2023-05-25T21:26:12.598Z,80.30
2023-05-25T21:28:42.029Z,80.30
2023-05-25T21:31:11.560Z,79.90
2023-05-25T21:33:41.791Z,79.80
2023-05-25T21:36:11.642Z,79.40
2023-05-25T23:23:27.126Z,71.20
2023-05-25T23:25:58.965Z,71.90
2023-05-25T23:28:28.530Z,71.00
2023-05-25T23:30:58.897Z,70.70
2023-05-25T23:33:28.368Z,70.50
2023-05-25T23:35:57.869Z,70.10
2023-05-25T23:38:27.503Z,69.50
2023-05-25T23:40:57.021Z,68.80
2023-05-25T23:43:26.894Z,68.70
2023-05-25T23:45:56.458Z,67.90
2023-05-25T23:48:25.937Z,67.50
2023-05-25T23:50:55.374Z,66.50
2023-05-25T23:53:24.774Z,66.00
2023-05-25T23:55:54.291Z,66.40
2023-05-25T23:58:23.708Z,67.00
